Time;durP1;ratioP1;P1;durP2;ratioP2;P2;SDS_P1;SDS_P2;PMS_P1;PMS_P2;Temp;Humidity;BMP_temperature;BMP_pressure;BME280_temperature;BME280_humidity;BME280_pressure;Samples;Min_cycle;Max_cycle;Signal;HPM_P1;HPM_P2
2021/09/23 00:01:34;;;;;;;5.17;4.15;;;;;;;7.36;83.82;98035.58;1740172;81;20954;-83
2021/09/23 00:06:45;;;;;;;7.40;5.22;;;;;;;7.26;84.34;98035.72;1738004;82;21001;-83
2021/09/23 00:09:12;;;;;;;7.22;5.00;;;;;;;7.20;84.48;98038.45;1738975;80;21077;-83
2021/09/23 00:11:38;;;;;;;5.65;4.30;;;;;;;7.15;84.68;98038.09;1768000;81;20939;-83
2021/09/23 00:14:05;;;;;;;9.50;4.95;;;;;;;7.02;85.03;98036.94;1739319;82;21015;-83
2021/09/23 00:16:32;;;;;;;6.40;4.42;;;;;;;7.10;84.59;98032.91;1739094;82;21069;-83
2021/09/23 00:18:59;;;;;;;6.67;5.00;;;;;;;7.13;84.71;98043.38;1740582;82;21443;-83
2021/09/23 00:21:26;;;;;;;6.65;4.37;;;;;;;7.09;84.48;98036.41;1739414;82;20991;-83
2021/09/23 00:23:53;;;;;;;10.93;5.40;;;;;;;7.12;84.26;98033.30;1739316;82;21047;-83
2021/09/23 00:26:20;;;;;;;6.55;4.30;;;;;;;7.17;84.24;98023.11;1739402;82;21030;-83
2021/09/23 00:28:47;;;;;;;5.78;4.58;;;;;;;7.24;84.18;98034.00;1739220;82;21019;-83
2021/09/23 00:31:13;;;;;;;5.45;4.30;;;;;;;7.26;83.61;98033.08;1741473;81;21014;-83
2021/09/23 00:33:40;;;;;;;5.15;4.00;;;;;;;7.31;83.23;98040.05;1741623;80;20998;-83
2021/09/23 00:36:06;;;;;;;5.33;4.22;;;;;;;7.35;83.29;98038.65;1739788;82;20994;-83
2021/09/23 00:38:33;;;;;;;6.20;4.03;;;;;;;7.43;83.62;98043.80;1709946;84;21083;-83
2021/09/23 00:41:00;;;;;;;6.33;4.75;;;;;;;7.49;83.51;98053.39;1710063;84;21046;-83
2021/09/23 00:43:27;;;;;;;5.92;4.20;;;;;;;7.45;82.35;98053.01;1709663;84;21097;-83
2021/09/23 00:45:53;;;;;;;7.03;5.03;;;;;;;7.48;82.52;98036.68;1710064;84;21061;-83
2021/09/23 00:48:20;;;;;;;6.30;4.37;;;;;;;7.51;82.69;98034.44;1710387;82;21036;-84
2021/09/23 00:50:47;;;;;;;7.62;4.22;;;;;;;7.51;82.03;98052.90;1709922;84;21045;-84
2021/09/23 00:53:19;;;;;;;6.12;4.60;;;;;;;7.49;82.24;98045.04;1710091;84;20971;-83
2021/09/23 00:55:45;;;;;;;6.58;4.50;;;;;;;7.42;81.37;98048.66;1709971;84;21093;-83
2021/09/23 00:58:12;;;;;;;5.37;4.53;;;;;;;7.39;81.32;98053.53;1685844;84;20987;-84
2021/09/23 01:00:40;;;;;;;4.90;3.85;;;;;;;7.36;81.40;98044.80;1742743;81;20990;-83
2021/09/23 01:03:12;;;;;;;6.40;4.90;;;;;;;7.20;81.87;98042.41;1739497;82;21392;-84
2021/09/23 01:05:40;;;;;;;6.85;4.40;;;;;;;7.17;82.12;98043.77;1713996;82;21038;-83
2021/09/23 01:08:07;;;;;;;6.15;4.40;;;;;;;7.10;81.80;98042.98;1739376;82;21034;-83
2021/09/23 01:10:34;;;;;;;6.47;4.55;;;;;;;6.97;82.33;98041.41;1739141;82;21054;-83
2021/09/23 01:13:02;;;;;;;6.85;5.00;;;;;;;6.94;82.32;98038.38;1744228;82;20976;-83
2021/09/23 01:15:30;;;;;;;6.78;4.85;;;;;;;6.88;83.00;98047.69;1755781;81;21060;-83
2021/09/23 01:17:57;;;;;;;6.17;4.75;;;;;;;6.87;82.47;98040.68;1756912;82;21068;-83
2021/09/23 01:20:25;;;;;;;7.05;5.03;;;;;;;6.86;82.40;98051.66;1750549;81;21051;-84
2021/09/23 01:22:52;;;;;;;7.83;4.47;;;;;;;6.86;82.38;98046.85;1729872;81;21039;-83
2021/09/23 01:25:22;;;;;;;6.28;4.40;;;;;;;6.88;82.50;98048.16;1720860;83;21055;-84
2021/09/23 01:27:51;;;;;;;6.95;4.47;;;;;;;6.90;82.59;98054.26;1726965;83;21456;-84
2021/09/23 01:30:19;;;;;;;8.00;4.35;;;;;;;6.89;82.38;98056.01;1680088;84;20996;-83
2021/09/23 01:32:48;;;;;;;8.35;4.85;;;;;;;6.91;82.51;98049.41;1721499;82;21863;-84
2021/09/23 01:35:16;;;;;;;6.67;4.65;;;;;;;6.93;82.21;98061.66;1750505;82;21054;-84
2021/09/23 01:37:45;;;;;;;7.00;4.75;;;;;;;6.91;81.98;98057.31;1750612;82;21007;-83
2021/09/23 01:40:12;;;;;;;5.55;4.03;;;;;;;6.90;82.66;98058.21;1750594;82;21047;-83
2021/09/23 01:42:43;;;;;;;5.92;4.22;;;;;;;6.94;82.31;98063.87;1750598;82;21027;-83
2021/09/23 01:45:13;;;;;;;6.75;4.60;;;;;;;6.94;82.14;98062.55;1778157;80;21015;-83
2021/09/23 01:47:47;;;;;;;6.25;4.37;;;;;;;6.90;82.10;98061.73;1781281;80;21023;-82
2021/09/23 01:50:16;;;;;;;7.00;3.75;;;;;;;6.86;81.77;98054.75;1756956;81;21024;-83
2021/09/23 01:52:44;;;;;;;7.22;4.30;;;;;;;6.82;81.84;98048.63;1750609;81;21385;-83
2021/09/23 01:55:15;;;;;;;6.15;4.28;;;;;;;6.89;81.86;98044.16;1751146;81;20989;-83
2021/09/23 01:57:42;;;;;;;6.37;4.28;;;;;;;6.89;81.37;98045.94;1720851;83;20992;-83
2021/09/23 02:00:09;;;;;;;5.37;3.95;;;;;;;6.90;81.58;98038.45;1707113;83;21374;-83
2021/09/23 02:02:43;;;;;;;5.95;4.37;;;;;;;6.90;81.32;98045.03;1689981;85;20999;-83
2021/09/23 02:05:18;;;;;;;5.70;3.42;;;;;;;6.91;81.38;98038.87;1689232;85;20996;-84
2021/09/23 02:07:44;;;;;;;9.60;3.98;;;;;;;6.94;81.22;98037.52;1723450;82;20933;-84
2021/09/23 02:10:13;;;;;;;6.33;3.65;;;;;;;6.99;81.35;98041.81;1756907;81;21020;-84
2021/09/23 02:12:41;;;;;;;6.62;3.92;;;;;;;7.05;81.17;98042.64;1756974;81;21430;-84
2021/09/23 02:15:11;;;;;;;5.92;3.55;;;;;;;7.08;80.93;98035.98;1757052;82;21040;-84
2021/09/23 02:17:37;;;;;;;7.20;3.80;;;;;;;7.12;81.07;98035.94;1742029;82;21067;-84
2021/09/23 02:20:07;;;;;;;8.03;4.42;;;;;;;7.16;81.34;98034.55;1728135;82;21007;-84
2021/09/23 02:22:35;;;;;;;4.67;3.60;;;;;;;7.17;81.31;98026.63;1737403;82;20975;-84
2021/09/23 02:25:03;;;;;;;8.88;4.33;;;;;;;7.17;81.01;98026.63;1745362;82;21054;-84
2021/09/23 02:27:30;;;;;;;7.33;4.20;;;;;;;7.15;81.03;98038.09;1752334;80;20981;-84
2021/09/23 02:29:56;;;;;;;5.53;3.77;;;;;;;7.06;80.47;98033.84;1770657;81;21019;-84
2021/09/23 02:32:22;;;;;;;9.25;4.15;;;;;;;7.03;80.58;98040.02;1775556;81;20947;-84
2021/09/23 02:34:49;;;;;;;8.05;4.47;;;;;;;7.00;80.32;98040.05;1775556;81;20994;-83
2021/09/23 02:37:16;;;;;;;5.97;4.00;;;;;;;6.94;80.46;98041.00;1767927;81;20994;-83
2021/09/23 02:39:44;;;;;;;6.78;4.20;;;;;;;6.92;80.50;98048.08;1745142;82;21038;-83
2021/09/23 02:42:11;;;;;;;5.85;4.40;;;;;;;6.90;80.33;98045.92;1745078;82;21022;-83
2021/09/23 02:44:37;;;;;;;5.28;4.08;;;;;;;6.83;80.70;98051.72;1745030;82;21455;-83
2021/09/23 02:47:04;;;;;;;6.35;4.12;;;;;;;6.76;80.54;98046.55;1745171;82;21030;-84
2021/09/23 02:49:30;;;;;;;8.03;4.10;;;;;;;6.70;80.78;98046.17;1735496;81;21028;-83
2021/09/23 02:51:58;;;;;;;5.97;4.33;;;;;;;6.63;80.88;98039.23;1765139;81;21035;-83
2021/09/23 02:54:25;;;;;;;10.82;4.60;;;;;;;6.58;80.86;98031.41;1765313;80;20996;-83
2021/09/23 02:56:52;;;;;;;6.72;4.58;;;;;;;6.53;81.21;98031.91;1765316;80;21015;-83
2021/09/23 02:59:19;;;;;;;9.13;4.58;;;;;;;6.47;82.18;98027.58;1759754;80;20947;-83
2021/09/23 03:01:45;;;;;;;6.17;3.98;;;;;;;6.42;81.38;98039.50;1743638;81;21522;-83
2021/09/23 03:04:12;;;;;;;8.45;4.42;;;;;;;6.36;82.60;98026.42;1775339;81;21026;-83
2021/09/23 03:06:39;;;;;;;6.25;4.10;;;;;;;6.33;81.94;98044.44;1775674;81;21006;-83
2021/09/23 03:09:08;;;;;;;7.30;4.58;;;;;;;6.24;83.56;98034.02;1775437;81;21256;-83
2021/09/23 03:11:33;;;;;;;8.38;4.50;;;;;;;6.21;82.96;98034.04;1775253;80;21069;-82
2021/09/23 03:14:00;;;;;;;7.17;4.30;;;;;;;6.21;83.37;98039.30;1742176;82;20970;-83
2021/09/23 03:16:26;;;;;;;8.53;4.72;;;;;;;6.19;83.13;98039.77;1744996;82;21018;-83
2021/09/23 03:18:55;;;;;;;7.75;4.53;;;;;;;6.18;82.59;98040.20;1729454;82;21049;-83
2021/09/23 03:21:21;;;;;;;7.28;4.87;;;;;;;6.16;83.54;98037.16;1757275;81;21022;-83
2021/09/23 03:23:49;;;;;;;7.90;4.83;;;;;;;6.17;82.87;98041.53;1772427;80;20992;-83
2021/09/23 03:26:16;;;;;;;9.50;5.00;;;;;;;6.16;82.92;98047.69;1773245;80;21043;-84
2021/09/23 03:28:42;;;;;;;6.33;4.55;;;;;;;6.17;82.85;98045.48;1758371;80;21019;-83
2021/09/23 03:31:09;;;;;;;8.48;5.15;;;;;;;6.20;83.57;98038.88;1767952;80;20952;-83
2021/09/23 03:33:36;;;;;;;6.53;4.40;;;;;;;6.23;83.78;98042.77;1773303;80;21011;-83
2021/09/23 03:36:03;;;;;;;8.15;4.92;;;;;;;6.26;83.19;98052.39;1758199;81;20984;-83
2021/09/23 03:38:31;;;;;;;8.63;4.67;;;;;;;6.30;83.20;98051.05;1780956;80;21508;-84
2021/09/23 03:40:58;;;;;;;8.60;4.90;;;;;;;6.33;83.16;98044.44;1777928;80;21007;-84
2021/09/23 03:43:25;;;;;;;7.90;4.85;;;;;;;6.37;83.11;98043.95;1773323;80;21004;-83
2021/09/23 03:45:51;;;;;;;7.10;4.97;;;;;;;6.40;83.18;98039.95;1773105;81;21440;-84
2021/09/23 03:48:22;;;;;;;6.78;4.78;;;;;;;6.43;83.04;98049.13;1773518;80;21023;-84
2021/09/23 03:50:49;;;;;;;6.75;4.47;;;;;;;6.46;82.75;98043.84;1773314;81;21004;-84
2021/09/23 03:53:16;;;;;;;9.65;4.60;;;;;;;6.51;82.83;98048.19;1760192;81;21053;-82
2021/09/23 03:55:43;;;;;;;7.47;4.92;;;;;;;6.53;82.51;98049.91;1755286;82;20979;-85
2021/09/23 03:58:10;;;;;;;8.15;4.67;;;;;;;6.57;82.62;98048.10;1755234;82;21428;-84
2021/09/23 04:00:36;;;;;;;7.25;5.03;;;;;;;6.62;82.43;98050.23;1779628;80;20965;-84
2021/09/23 04:03:03;;;;;;;7.78;5.10;;;;;;;6.66;82.61;98057.20;1726332;83;21400;-84
2021/09/23 04:05:29;;;;;;;7.58;4.50;;;;;;;6.70;83.08;98056.28;1766549;80;20932;-84
2021/09/23 04:07:56;;;;;;;7.08;4.35;;;;;;;6.77;82.98;98047.82;1774393;80;20976;-85
2021/09/23 04:10:24;;;;;;;8.25;4.80;;;;;;;6.83;83.03;98057.42;1773398;80;20999;-85
2021/09/23 04:12:55;;;;;;;7.35;4.65;;;;;;;6.88;82.97;98054.27;1773326;81;20999;-84
2021/09/23 04:15:20;;;;;;;6.75;4.28;;;;;;;6.96;83.09;98059.00;1773045;80;20988;-84
2021/09/23 04:17:47;;;;;;;9.00;4.58;;;;;;;7.04;83.36;98055.37;1759482;81;20986;-84
2021/09/23 04:20:13;;;;;;;6.33;4.10;;;;;;;7.09;83.26;98058.37;1747102;82;20987;-84
2021/09/23 04:22:42;;;;;;;5.25;4.20;;;;;;;7.12;82.38;98057.45;1746348;82;21065;-84
2021/09/23 04:25:10;;;;;;;7.20;4.28;;;;;;;7.13;81.46;98057.87;1747680;82;21045;-84
2021/09/23 04:27:37;;;;;;;11.05;4.42;;;;;;;7.12;81.41;98058.34;1747876;82;21037;-84
2021/09/23 04:30:07;;;;;;;6.90;4.50;;;;;;;7.15;82.07;98051.27;1751245;81;21039;-84
2021/09/23 04:32:34;;;;;;;7.83;4.50;;;;;;;7.18;81.99;98060.00;1747837;82;21416;-84
2021/09/23 04:35:00;;;;;;;7.80;5.03;;;;;;;7.17;81.42;98063.53;1747749;82;21027;-84
2021/09/23 04:37:27;;;;;;;9.00;5.75;;;;;;;7.15;81.71;98062.70;1756192;81;21003;-84
2021/09/23 04:39:53;;;;;;;5.92;4.40;;;;;;;7.18;81.56;98061.31;1750935;82;21011;-84
2021/09/23 04:42:20;;;;;;;6.55;4.40;;;;;;;7.16;80.98;98057.84;1756934;82;21044;-84
2021/09/23 04:44:49;;;;;;;7.00;4.47;;;;;;;7.17;81.09;98054.73;1756940;81;20977;-85
2021/09/23 04:47:15;;;;;;;7.33;5.30;;;;;;;7.14;80.67;98053.02;1756553;81;20999;-84
2021/09/23 04:49:44;;;;;;;7.65;4.47;;;;;;;7.14;81.21;98060.93;1757100;82;21004;-85
2021/09/23 04:52:11;;;;;;;6.25;4.42;;;;;;;7.15;81.04;98064.45;1742294;82;20985;-85
2021/09/23 04:54:40;;;;;;;8.38;5.08;;;;;;;7.17;80.98;98071.88;1757077;81;21013;-84
2021/09/23 04:57:07;;;;;;;7.25;4.62;;;;;;;7.08;80.61;98065.86;1757065;81;20973;-85
2021/09/23 04:59:33;;;;;;;6.00;3.85;;;;;;;7.10;80.78;98069.34;1756569;81;20953;-84
2021/09/23 05:02:00;;;;;;;7.90;4.90;;;;;;;7.10;80.58;98076.39;1757029;82;21005;-84
2021/09/23 05:04:26;;;;;;;7.85;4.72;;;;;;;7.09;80.69;98075.94;1757071;82;21012;-84
2021/09/23 05:06:54;;;;;;;6.95;4.78;;;;;;;7.10;80.66;98073.75;1757158;82;21068;-84
2021/09/23 05:09:21;;;;;;;10.10;5.00;;;;;;;7.11;80.79;98071.07;1757113;81;21492;-84
2021/09/23 05:11:47;;;;;;;8.73;4.70;;;;;;;7.13;80.93;98075.89;1756510;81;20993;-84
2021/09/23 05:14:16;;;;;;;8.08;4.83;;;;;;;7.11;81.09;98082.93;1757281;81;20953;-84
2021/09/23 05:16:43;;;;;;;7.12;4.55;;;;;;;7.13;80.92;98086.87;1757007;81;21001;-84
2021/09/23 05:19:16;;;;;;;6.75;4.97;;;;;;;7.11;80.76;98078.13;1762251;80;21422;-86
2021/09/23 05:21:43;;;;;;;8.53;4.67;;;;;;;7.10;80.69;98089.57;1779411;81;21437;-82
2021/09/23 05:24:13;;;;;;;7.78;5.37;;;;;;;7.07;80.72;98079.05;1778611;79;20957;-84
2021/09/23 05:26:42;;;;;;;8.73;5.03;;;;;;;7.09;80.75;98087.36;1779345;80;21405;-84
2021/09/23 05:29:09;;;;;;;9.30;6.05;;;;;;;7.12;80.71;98084.70;1772114;80;20954;-84
2021/09/23 05:31:36;;;;;;;9.30;4.90;;;;;;;7.18;81.39;98084.19;1753404;79;20978;-84
2021/09/23 05:34:04;;;;;;;8.15;4.97;;;;;;;7.21;80.79;98081.48;1753360;81;21466;-84
2021/09/23 05:36:31;;;;;;;9.03;4.78;;;;;;;7.25;80.63;98088.02;1770162;81;21599;-84
2021/09/23 05:38:59;;;;;;;7.70;5.10;;;;;;;7.29;80.76;98080.94;1779253;80;21004;-83
2021/09/23 05:41:27;;;;;;;8.13;5.45;;;;;;;7.34;80.65;98084.80;1779149;81;21084;-83
2021/09/23 05:43:54;;;;;;;8.75;4.80;;;;;;;7.37;80.68;98082.13;1745327;82;21449;-83
2021/09/23 05:46:20;;;;;;;9.03;5.95;;;;;;;7.41;80.79;98075.92;1723310;83;21030;-83
2021/09/23 05:48:47;;;;;;;6.22;4.75;;;;;;;7.45;80.73;98088.17;1723456;83;21029;-83
2021/09/23 05:51:14;;;;;;;7.25;5.10;;;;;;;7.49;80.50;98092.51;1723388;83;21451;-84
2021/09/23 05:53:40;;;;;;;7.45;4.37;;;;;;;7.55;80.46;98082.29;1728744;81;20977;-84
2021/09/23 05:56:07;;;;;;;9.10;5.15;;;;;;;7.62;80.06;98087.02;1753418;81;21466;-83
2021/09/23 05:58:34;;;;;;;9.30;4.80;;;;;;;7.65;79.73;98080.39;1753382;80;21026;-82
2021/09/23 06:01:02;;;;;;;7.28;4.85;;;;;;;7.65;79.62;98088.30;1723566;83;20993;-83
2021/09/23 06:03:29;;;;;;;8.15;5.25;;;;;;;7.68;79.75;98081.64;1723543;83;21022;-83
2021/09/23 06:05:55;;;;;;;7.33;5.00;;;;;;;7.74;79.76;98084.20;1734196;80;20969;-83
2021/09/23 06:08:21;;;;;;;9.63;5.60;;;;;;;7.82;79.79;98088.46;1779230;80;21008;-83
2021/09/23 06:10:48;;;;;;;8.25;5.45;;;;;;;7.87;79.47;98094.09;1779480;80;21056;-83
2021/09/23 06:13:15;;;;;;;8.23;5.22;;;;;;;7.91;79.62;98096.22;1779075;81;20980;-83
2021/09/23 06:15:41;;;;;;;11.00;5.55;;;;;;;7.90;78.93;98096.66;1779363;81;20969;-83
2021/09/23 06:18:08;;;;;;;7.47;5.33;;;;;;;7.99;79.04;98088.17;1774709;81;21033;-83
2021/09/23 06:20:34;;;;;;;8.63;5.20;;;;;;;8.03;78.90;98086.78;1747227;82;21018;-84
2021/09/23 06:23:00;;;;;;;8.60;5.70;;;;;;;8.10;78.60;98091.95;1744825;82;21029;-83
2021/09/23 06:25:27;;;;;;;10.15;5.67;;;;;;;8.17;78.94;98094.44;1744833;82;21006;-83
2021/09/23 06:27:53;;;;;;;8.98;5.47;;;;;;;8.26;78.66;98103.95;1744613;82;21057;-84
2021/09/23 06:30:20;;;;;;;9.28;5.87;;;;;;;8.34;78.70;98104.28;1745369;81;21026;-84
2021/09/23 06:32:46;;;;;;;9.18;5.53;;;;;;;8.41;78.82;98108.53;1744777;82;21432;-83
2021/09/23 06:35:13;;;;;;;10.05;5.90;;;;;;;8.45;78.17;98109.78;1744733;82;21431;-83
2021/09/23 06:37:40;;;;;;;8.55;5.30;;;;;;;8.43;76.43;98112.88;1745040;80;21034;-83
2021/09/23 06:40:09;;;;;;;11.45;7.45;;;;;;;8.53;77.83;98113.63;1745014;81;21037;-82
2021/09/23 06:42:35;;;;;;;8.43;6.15;;;;;;;8.56;77.38;98109.58;1750114;81;21496;-83
2021/09/23 06:45:03;;;;;;;12.23;7.78;;;;;;;8.57;76.87;98111.78;1765069;81;20964;-83
2021/09/23 06:47:30;;;;;;;6.83;4.42;;;;;;;8.54;76.06;98110.08;1765019;81;21064;-83
2021/09/23 06:49:56;;;;;;;7.65;5.42;;;;;;;8.65;76.80;98116.92;1764794;80;21074;-82
2021/09/23 06:52:22;;;;;;;7.47;5.50;;;;;;;8.69;76.42;98114.17;1763550;81;21410;-83
2021/09/23 06:54:49;;;;;;;9.23;6.05;;;;;;;8.78;76.47;98109.61;1765211;81;21004;-83
2021/09/23 06:57:16;;;;;;;9.60;5.25;;;;;;;8.86;76.11;98109.01;1765031;81;21497;-84
2021/09/23 07:00:01;;;;;;;8.05;5.28;;;;;;;8.93;75.68;98104.47;1755313;81;21061;-83
2021/09/23 07:02:29;;;;;;;7.58;5.78;;;;;;;9.03;76.03;98101.16;1744276;82;21045;-83
2021/09/23 07:04:58;;;;;;;9.03;5.58;;;;;;;9.13;75.69;98105.81;1742660;82;21033;-83
2021/09/23 07:07:26;;;;;;;10.80;5.60;;;;;;;9.18;75.73;98106.58;1744692;81;21013;-83
2021/09/23 07:09:53;;;;;;;7.45;5.78;;;;;;;9.30;75.63;98106.77;1752933;81;20981;-83
2021/09/23 07:12:28;;;;;;;8.63;5.60;;;;;;;9.38;74.56;98105.67;1765161;81;21030;-83
2021/09/23 07:14:54;;;;;;;8.68;5.47;;;;;;;9.49;74.68;98116.02;1765066;81;21402;-83
2021/09/23 07:17:21;;;;;;;8.38;5.12;;;;;;;9.58;74.32;98115.36;1765080;80;21027;-83
2021/09/23 07:19:47;;;;;;;8.15;5.50;;;;;;;9.66;73.32;98105.47;1768526;81;21041;-83
2021/09/23 07:22:16;;;;;;;8.20;5.62;;;;;;;9.63;72.74;98120.97;1779292;81;20968;-83
2021/09/23 07:24:44;;;;;;;7.55;5.15;;;;;;;9.68;73.09;98119.52;1778218;80;21055;-83
2021/09/23 07:27:13;;;;;;;11.48;8.23;;;;;;;9.73;72.60;98116.78;1753424;82;21078;-83
2021/09/23 07:29:39;;;;;;;11.63;7.15;;;;;;;9.76;71.28;98123.34;1768681;81;21040;-83
2021/09/23 07:32:09;;;;;;;10.20;5.85;;;;;;;9.82;72.28;98117.89;1779374;80;21480;-82
2021/09/23 07:34:37;;;;;;;10.50;5.60;;;;;;;9.91;72.08;98123.40;1779466;81;21004;-83
2021/09/23 07:37:04;;;;;;;7.55;5.42;;;;;;;9.94;70.99;98127.30;1779466;80;21031;-83
2021/09/23 07:39:34;;;;;;;7.62;5.65;;;;;;;9.95;70.81;98125.06;1766701;81;21041;-83
2021/09/23 07:42:02;;;;;;;9.58;6.22;;;;;;;9.95;70.66;98124.19;1753394;82;21045;-83
2021/09/23 07:44:29;;;;;;;8.70;6.20;;;;;;;9.99;70.64;98128.06;1753266;81;21002;-83
2021/09/23 07:46:59;;;;;;;10.00;5.90;;;;;;;10.03;70.88;98135.02;1753525;82;21078;-84
2021/09/23 07:49:24;;;;;;;9.45;6.00;;;;;;;9.96;70.43;98132.56;1753268;82;21081;-83
2021/09/23 07:51:50;;;;;;;10.10;6.08;;;;;;;10.06;71.26;98135.84;1754096;80;20977;-83
2021/09/23 07:54:17;;;;;;;8.70;5.58;;;;;;;10.13;71.07;98138.77;1753862;81;21002;-83
2021/09/23 07:56:44;;;;;;;8.85;5.75;;;;;;;10.25;71.00;98134.90;1779684;80;20950;-83
2021/09/23 07:59:11;;;;;;;9.30;5.90;;;;;;;10.37;70.95;98146.52;1784319;80;20994;-83
2021/09/23 08:01:38;;;;;;;7.65;5.83;;;;;;;10.36;69.88;98138.60;1784233;80;21459;-83
2021/09/23 08:04:04;;;;;;;8.38;6.28;;;;;;;10.47;71.20;98131.30;1780469;80;20969;-83
2021/09/23 08:06:31;;;;;;;8.43;6.25;;;;;;;10.59;69.80;98139.81;1779311;80;21386;-83
2021/09/23 08:08:59;;;;;;;10.30;7.12;;;;;;;10.67;69.12;98140.48;1779283;80;21258;-83
2021/09/23 08:11:26;;;;;;;8.55;6.05;;;;;;;10.76;70.26;98140.67;1779450;80;20988;-83
2021/09/23 08:13:55;;;;;;;9.83;6.53;;;;;;;10.86;69.64;98146.12;1752823;82;21061;-83
2021/09/23 08:16:22;;;;;;;9.73;6.08;;;;;;;10.87;68.63;98137.72;1753422;82;21411;-84
2021/09/23 08:19:06;;;;;;;9.03;6.33;;;;;;;10.82;68.48;98138.72;1753252;82;21046;-83
2021/09/23 08:21:47;;;;;;;8.58;6.95;;;;;;;10.78;67.31;98134.41;1734066;80;21030;-83
2021/09/23 08:24:14;;;;;;;9.38;6.25;;;;;;;10.80;68.18;98137.02;1753145;81;21443;-84
2021/09/23 08:26:40;;;;;;;9.30;6.72;;;;;;;10.83;68.27;98123.66;1753373;82;20994;-83
2021/09/23 08:29:09;;;;;;;7.87;6.12;;;;;;;10.93;68.51;98114.52;1753373;81;21482;-83
2021/09/23 08:31:37;;;;;;;8.60;5.90;;;;;;;10.95;67.22;98129.07;1753522;80;21025;-83
2021/09/23 08:34:04;;;;;;;9.85;6.45;;;;;;;11.00;66.77;98131.61;1753796;81;20982;-84
2021/09/23 08:36:30;;;;;;;10.38;6.35;;;;;;;11.05;67.46;98124.38;1753446;82;21059;-83
2021/09/23 08:38:57;;;;;;;8.80;6.00;;;;;;;11.06;66.51;98117.71;1753335;82;21069;-83
2021/09/23 08:41:23;;;;;;;8.15;6.65;;;;;;;11.07;66.82;98129.17;1753359;82;21014;-83
2021/09/23 08:43:52;;;;;;;8.00;6.37;;;;;;;11.04;66.06;98123.50;1753491;81;21393;-83
2021/09/23 08:46:19;;;;;;;7.78;6.17;;;;;;;11.12;66.69;98121.94;1754080;81;21032;-83
2021/09/23 08:48:48;;;;;;;8.83;6.25;;;;;;;11.17;66.01;98125.33;1753518;82;21017;-84
2021/09/23 08:51:15;;;;;;;7.80;5.80;;;;;;;11.21;66.07;98111.50;1753461;82;21033;-83
2021/09/23 08:53:44;;;;;;;7.45;5.92;;;;;;;11.18;64.79;98115.59;1779348;80;20939;-83
2021/09/23 08:56:14;;;;;;;7.95;6.03;;;;;;;11.16;65.15;98108.13;1760139;80;22132;-84
2021/09/23 08:58:41;;;;;;;10.78;6.65;;;;;;;11.15;65.84;98113.91;1770616;80;20985;-84
2021/09/23 09:01:17;;;;;;;7.03;6.05;;;;;;;11.14;65.06;98116.16;1730100;82;21044;-83
2021/09/23 09:03:57;;;;;;;8.38;6.03;;;;;;;11.16;65.20;98112.98;1750883;82;21001;-83
2021/09/23 09:06:26;;;;;;;8.45;6.00;;;;;;;11.13;65.00;98112.22;1745670;82;21539;-82
2021/09/23 09:08:57;;;;;;;9.53;6.42;;;;;;;11.09;65.08;98130.02;1713505;80;20993;-83
2021/09/23 09:11:27;;;;;;;8.08;5.62;;;;;;;11.09;65.50;98103.02;1778097;80;21419;-83
2021/09/23 09:13:53;;;;;;;8.63;6.65;;;;;;;11.01;64.64;98110.31;1779402;81;20957;-83
2021/09/23 09:16:25;;;;;;;7.22;5.78;;;;;;;10.87;65.10;98110.73;1779416;81;21477;-83
2021/09/23 09:18:56;;;;;;;8.33;5.97;;;;;;;10.93;65.21;98115.00;1779031;80;21155;-83
2021/09/23 09:21:26;;;;;;;8.38;6.03;;;;;;;11.00;65.17;98113.04;1755421;80;21018;-84
2021/09/23 09:24:01;;;;;;;8.40;6.42;;;;;;;11.05;65.89;98121.25;1725806;80;21050;-83
2021/09/23 09:26:33;;;;;;;;;;;;;;;11.15;65.83;98122.31;1750983;81;21076;-83
2021/09/23 09:29:05;;;;;;;8.63;5.42;;;;;;;11.15;65.35;98119.21;1749311;82;20145;-83
2021/09/23 09:31:33;;;;;;;7.53;5.78;;;;;;;11.13;64.80;98124.16;1757069;81;21037;-83
2021/09/23 09:34:03;;;;;;;8.68;5.80;;;;;;;11.19;65.02;98116.00;1768897;81;20955;-83
2021/09/23 09:36:49;;;;;;;7.58;5.37;;;;;;;11.30;64.88;98120.52;1772417;81;21025;-83
2021/09/23 09:39:18;;;;;;;9.78;5.37;;;;;;;11.35;63.47;98114.61;1722491;82;21434;-83
2021/09/23 09:41:51;;;;;;;7.75;5.45;;;;;;;11.25;62.67;98110.98;1747744;82;21053;-83
2021/09/23 09:44:21;;;;;;;7.95;5.50;;;;;;;11.34;63.76;98118.18;1747942;82;20989;-84
2021/09/23 09:46:53;;;;;;;5.20;4.28;;;;;;;11.41;63.22;98124.66;1763231;81;21106;-83
2021/09/23 09:49:24;;;;;;;10.35;7.28;;;;;;;11.29;62.03;98127.22;1751035;82;21018;-83
2021/09/23 09:51:55;;;;;;;7.67;5.17;;;;;;;11.37;62.51;98122.52;1756067;81;21487;-84
2021/09/23 09:54:24;;;;;;;8.38;4.05;;;;;;;11.49;62.54;98119.95;1762531;81;20982;-84
2021/09/23 09:57:03;;;;;;;5.80;4.40;;;;;;;11.55;60.85;98122.41;1772997;81;21026;-84
2021/09/23 09:59:32;;;;;;;6.72;4.60;;;;;;;11.65;60.55;98134.94;1718364;83;21431;-84
2021/09/23 10:01:59;;;;;;;8.73;4.35;;;;;;;11.70;61.47;98119.73;1718180;83;21183;-83
2021/09/23 10:04:29;;;;;;;7.45;4.10;;;;;;;11.85;60.52;98120.16;1718176;83;20994;-83
2021/09/23 10:07:02;;;;;;;6.00;4.03;;;;;;;11.99;61.13;98114.38;1720812;81;21041;-83
2021/09/23 10:09:32;;;;;;;5.15;3.30;;;;;;;12.13;58.86;98117.47;1750835;82;21078;-83
2021/09/23 10:12:00;;;;;;;4.67;3.47;;;;;;;12.26;60.51;98105.95;1756931;82;21438;-83
2021/09/23 10:14:28;;;;;;;5.20;3.52;;;;;;;12.43;59.83;98116.92;1756999;81;21434;-83
2021/09/23 10:16:56;;;;;;;5.70;2.90;;;;;;;12.40;56.89;98109.93;1744256;81;21403;-83
2021/09/23 10:19:24;;;;;;;3.80;3.10;;;;;;;12.46;56.29;98119.48;1739172;82;21066;-84
2021/09/23 10:21:50;;;;;;;4.25;2.80;;;;;;;12.70;57.66;98115.06;1743839;81;21077;-83
2021/09/23 10:24:19;;;;;;;3.33;2.87;;;;;;;12.83;53.36;98123.94;1745012;81;21033;-83
2021/09/23 10:26:48;;;;;;;3.45;2.62;;;;;;;12.96;54.04;98122.57;1730548;82;21039;-83
2021/09/23 10:29:15;;;;;;;3.62;2.67;;;;;;;13.18;54.70;98117.30;1748842;81;20991;-83
2021/09/23 10:31:44;;;;;;;6.25;3.98;;;;;;;13.57;54.91;98105.17;1744885;82;20982;-83
2021/09/23 10:34:13;;;;;;;5.12;3.10;;;;;;;13.75;52.54;98098.71;1744849;82;21045;-83
2021/09/23 10:36:42;;;;;;;4.87;3.00;;;;;;;13.82;51.07;98097.52;1744749;82;21017;-83
2021/09/23 10:39:10;;;;;;;3.85;2.77;;;;;;;14.15;52.54;98096.16;1757248;81;21373;-83
2021/09/23 10:41:39;;;;;;;3.90;2.70;;;;;;;14.11;50.50;98103.88;1765037;80;20999;-83
2021/09/23 10:44:07;;;;;;;5.37;2.90;;;;;;;14.16;50.71;98095.70;1765174;81;20964;-84
2021/09/23 10:46:36;;;;;;;3.05;2.60;;;;;;;14.23;50.00;98089.16;1748087;81;20992;-85
2021/09/23 10:49:06;;;;;;;4.87;2.77;;;;;;;14.33;51.26;98096.31;1764934;81;21012;-85
2021/09/23 10:51:35;;;;;;;3.70;2.75;;;;;;;14.46;51.20;98092.64;1748195;81;21042;-84
2021/09/23 10:54:08;;;;;;;3.50;2.83;;;;;;;14.30;47.37;98090.65;1744942;82;21038;-85
2021/09/23 10:56:36;;;;;;;29.80;18.50;;;;;;;14.44;50.13;98089.16;1745115;82;21037;-86
2021/09/23 10:59:04;;;;;;;4.85;3.20;;;;;;;14.51;50.07;98095.97;1752391;80;21005;-85
2021/09/23 11:01:36;;;;;;;3.47;2.87;;;;;;;14.37;49.03;98085.44;1754155;82;20969;-85
2021/09/23 11:04:04;;;;;;;5.05;3.00;;;;;;;14.32;49.84;98079.92;1757350;81;20976;-85
2021/09/23 11:06:36;;;;;;;4.53;3.15;;;;;;;14.37;50.21;98093.44;1757385;82;21477;-85
2021/09/23 11:09:22;;;;;;;4.15;3.08;;;;;;;14.35;49.77;98090.44;1757122;81;21004;-85
2021/09/23 11:11:56;;;;;;;5.80;3.58;;;;;;;14.20;48.71;98097.31;1744243;81;21021;-85
2021/09/23 11:14:26;;;;;;;3.70;3.30;;;;;;;14.01;51.09;98099.42;1757290;82;20969;-85
2021/09/23 11:16:57;;;;;;;6.05;3.20;;;;;;;13.80;51.32;98106.05;1742318;82;21002;-85
2021/09/23 11:19:25;;;;;;;3.95;3.42;;;;;;;13.66;51.95;98101.75;1747720;81;20994;-85
2021/09/23 11:21:57;;;;;;;4.45;3.17;;;;;;;13.38;51.82;98109.01;1747453;81;20979;-85
2021/09/23 11:24:26;;;;;;;4.17;3.17;;;;;;;13.33;51.52;98109.66;1770069;81;21050;-85
2021/09/23 11:26:54;;;;;;;4.42;3.20;;;;;;;13.23;52.14;98109.58;1764451;81;20963;-85
2021/09/23 11:29:21;;;;;;;5.00;3.33;;;;;;;13.13;52.79;98110.41;1739622;82;21037;-85
2021/09/23 11:31:52;;;;;;;6.10;3.42;;;;;;;13.12;53.69;98108.69;1741004;80;20967;-84
2021/09/23 11:34:37;;;;;;;6.67;5.92;;;;;;;13.15;53.94;98119.19;1739796;82;21062;-84
2021/09/23 11:37:08;;;;;;;5.25;4.15;;;;;;;13.10;54.05;98105.20;1739967;82;21384;-84
2021/09/23 11:39:48;;;;;;;5.47;3.60;;;;;;;12.95;54.44;98112.83;1737655;82;21002;-84
2021/09/23 11:42:21;;;;;;;4.53;3.75;;;;;;;12.76;54.29;98109.55;1699866;83;20967;-84
2021/09/23 11:44:50;;;;;;;5.25;3.50;;;;;;;12.70;54.87;98118.20;1717088;84;21057;-84
2021/09/23 11:47:21;;;;;;;5.90;4.22;;;;;;;12.63;54.87;98112.23;1717169;84;20998;-84